sensor_id;sensor_type;location;lat;lon;timestamp;temperature;humidity
1075;DHT22;526;51.392;12.448;2024-01-10T05:00:40;-9.80;97.30
1075;DHT22;526;51.392;12.448;2024-01-10T05:03:05;-9.80;97.30
1075;DHT22;526;51.392;12.448;2024-01-10T05:05:31;-9.80;97.30
1075;DHT22;526;51.392;12.448;2024-01-10T05:07:57;-9.80;97.30
1075;DHT22;526;51.392;12.448;2024-01-10T05:10:22;-9.80;97.30
1075;DHT22;526;51.392;12.448;2024-01-10T05:12:48;-9.80;97.30
1075;DHT22;526;51.392;12.448;2024-01-10T05:15:13;-9.80;97.30
1075;DHT22;526;51.392;12.448;2024-01-10T05:17:39;-9.80;97.30
1075;DHT22;526;51.392;12.448;2024-01-10T05:20:06;-9.80;97.30
1075;DHT22;526;51.392;12.448;2024-01-10T05:22:32;-9.90;97.30
1075;DHT22;526;51.392;12.448;2024-01-10T05:24:57;-9.90;97.30
1075;DHT22;526;51.392;12.448;2024-01-10T05:27:23;-9.90;97.30
1075;DHT22;526;51.392;12.448;2024-01-10T05:29:48;-10.00;97.30
1075;DHT22;526;51.392;12.448;2024-01-10T05:32:14;-10.00;97.30
1075;DHT22;526;51.392;12.448;2024-01-10T05:34:39;-10.00;97.30
1075;DHT22;526;51.392;12.448;2024-01-10T05:37:05;-10.00;97.30
1075;DHT22;526;51.392;12.448;2024-01-10T05:39:30;-10.00;97.30
1075;DHT22;526;51.392;12.448;2024-01-10T05:41:56;-10.00;97.30
1075;DHT22;526;51.392;12.448;2024-01-10T05:44:21;-10.00;97.30
1075;DHT22;526;51.392;12.448;2024-01-10T05:46:47;-10.10;97.30
1075;DHT22;526;51.392;12.448;2024-01-10T05:49:13;-10.10;97.30
1075;DHT22;526;51.392;12.448;2024-01-10T05:51:38;-10.10;97.30
1075;DHT22;526;51.392;12.448;2024-01-10T05:54:04;-10.10;97.30
1075;DHT22;526;51.392;12.448;2024-01-10T05:56:29;-10.10;97.30
1075;DHT22;526;51.392;12.448;2024-01-10T05:58:55;-10.10;97.30
1075;DHT22;526;51.392;12.448;2024-01-10T06:01:20;-10.10;97.30
1075;DHT22;526;51.392;12.448;2024-01-10T06:03:46;-10.10;97.30
1075;DHT22;526;51.392;12.448;2024-01-10T06:06:11;-10.10;97.30
1075;DHT22;526;51.392;12.448;2024-01-10T06:08:37;-10.10;97.30
1075;DHT22;526;51.392;12.448;2024-01-10T06:11:04;-10.10;97.30
1075;DHT22;526;51.392;12.448;2024-01-10T06:13:34;-10.10;97.30
1075;DHT22;526;51.392;12.448;2024-01-10T06:16:00;-10.10;97.30
1075;DHT22;526;51.392;12.448;2024-01-10T06:18:25;-10.10;97.30
1075;DHT22;526;51.392;12.448;2024-01-10T06:20:51;-10.10;97.30
1075;DHT22;526;51.392;12.448;2024-01-10T06:23:16;-10.10;97.30
1075;DHT22;526;51.392;12.448;2024-01-10T06:25:42;-10.10;97.30
1075;DHT22;526;51.392;12.448;2024-01-10T06:28:08;-10.10;97.30
1075;DHT22;526;51.392;12.448;2024-01-10T06:30:33;-10.10;97.30
1075;DHT22;526;51.392;12.448;2024-01-10T06:33:00;-10.10;97.30
1075;DHT22;526;51.392;12.448;2024-01-10T06:35:26;-10.10;97.30
1075;DHT22;526;51.392;12.448;2024-01-10T06:37:51;-10.10;97.30
1075;DHT22;526;51.392;12.448;2024-01-10T06:40:18;-10.10;97.30
1075;DHT22;526;51.392;12.448;2024-01-10T06:42:43;-10.10;97.30
1075;DHT22;526;51.392;12.448;2024-01-10T06:45:09;-10.10;97.30
1075;DHT22;526;51.392;12.448;2024-01-10T06:47:37;-10.10;97.30
1075;DHT22;526;51.392;12.448;2024-01-10T06:50:03;-10.10;97.30
1075;DHT22;526;51.392;12.448;2024-01-10T06:52:31;-10.10;97.30
1075;DHT22;526;51.392;12.448;2024-01-10T06:54:56;-10.20;97.30
1075;DHT22;526;51.392;12.448;2024-01-10T06:57:22;-10.20;97.30
1075;DHT22;526;51.392;12.448;2024-01-10T06:59:48;-10.20;97.30
1075;DHT22;526;51.392;12.448;2024-01-10T07:02:14;-10.20;97.30
1075;DHT22;526;51.392;12.448;2024-01-10T07:04:40;-10.20;97.30
1075;DHT22;526;51.392;12.448;2024-01-10T07:07:06;-10.20;97.30
1075;DHT22;526;51.392;12.448;2024-01-10T07:09:33;-10.20;97.30
1075;DHT22;526;51.392;12.448;2024-01-10T07:11:59;-10.20;97.30
1075;DHT22;526;51.392;12.448;2024-01-10T07:14:25;-10.20;97.30
1075;DHT22;526;51.392;12.448;2024-01-10T07:16:50;-10.20;97.30
1075;DHT22;526;51.392;12.448;2024-01-10T07:19:17;-10.20;97.30
1075;DHT22;526;51.392;12.448;2024-01-10T07:21:43;-10.20;97.30
1075;DHT22;526;51.392;12.448;2024-01-10T07:24:09;-10.20;97.30
1075;DHT22;526;51.392;12.448;2024-01-10T07:26:36;-10.20;97.30
1075;DHT22;526;51.392;12.448;2024-01-10T07:29:02;-10.20;97.30
1075;DHT22;526;51.392;12.448;2024-01-10T07:31:28;-10.20;97.30
1075;DHT22;526;51.392;12.448;2024-01-10T07:33:57;-10.10;97.30
1075;DHT22;526;51.392;12.448;2024-01-10T07:36:24;-10.10;97.30
1075;DHT22;526;51.392;12.448;2024-01-10T07:38:52;-10.10;97.30
1075;DHT22;526;51.392;12.448;2024-01-10T07:41:18;-10.10;97.30
1075;DHT22;526;51.392;12.448;2024-01-10T07:43:43;-10.00;97.30
1075;DHT22;526;51.392;12.448;2024-01-10T07:46:09;-10.00;97.30
1075;DHT22;526;51.392;12.448;2024-01-10T07:48:35;-10.00;97.30
1075;DHT22;526;51.392;12.448;2024-01-10T07:51:01;-10.00;97.30
1075;DHT22;526;51.392;12.448;2024-01-10T07:53:27;-9.90;97.30
1075;DHT22;526;51.392;12.448;2024-01-10T07:55:52;-9.90;97.30
1075;DHT22;526;51.392;12.448;2024-01-10T07:58:18;-9.80;97.30
1075;DHT22;526;51.392;12.448;2024-01-10T08:00:43;-9.70;97.30
1075;DHT22;526;51.392;12.448;2024-01-10T08:03:10;-9.70;97.30
1075;DHT22;526;51.392;12.448;2024-01-10T08:05:35;-9.60;97.30
1075;DHT22;526;51.392;12.448;2024-01-10T08:08:01;-9.50;97.30
1075;DHT22;526;51.392;12.448;2024-01-10T08:10:27;-9.40;97.30
1075;DHT22;526;51.392;12.448;2024-01-10T08:12:55;-9.40;97.30
1075;DHT22;526;51.392;12.448;2024-01-10T08:15:22;-9.30;97.30
1075;DHT22;526;51.392;12.448;2024-01-10T08:17:48;-9.30;97.30
1075;DHT22;526;51.392;12.448;2024-01-10T08:20:13;-9.20;97.30
1075;DHT22;526;51.392;12.448;2024-01-10T08:22:43;-9.10;97.30
1075;DHT22;526;51.392;12.448;2024-01-10T08:25:10;-9.00;97.30
1075;DHT22;526;51.392;12.448;2024-01-10T08:27:35;-9.00;97.30
1075;DHT22;526;51.392;12.448;2024-01-10T08:30:01;-8.90;97.30
1075;DHT22;526;51.392;12.448;2024-01-10T08:32:30;-8.90;97.30
1075;DHT22;526;51.392;12.448;2024-01-10T08:34:55;-8.80;97.30
1075;DHT22;526;51.392;12.448;2024-01-10T08:37:21;-8.80;97.30
1075;DHT22;526;51.392;12.448;2024-01-10T08:39:47;-8.70;97.30
1075;DHT22;526;51.392;12.448;2024-01-10T08:42:12;-8.70;97.30
1075;DHT22;526;51.392;12.448;2024-01-10T08:44:38;-8.70;97.30
1075;DHT22;526;51.392;12.448;2024-01-10T08:47:04;-8.70;97.30
1075;DHT22;526;51.392;12.448;2024-01-10T08:49:29;-8.60;97.30
1075;DHT22;526;51.392;12.448;2024-01-10T08:51:55;-8.50;97.30
1075;DHT22;526;51.392;12.448;2024-01-10T08:54:20;-8.50;97.30
1075;DHT22;526;51.392;12.448;2024-01-10T08:56:48;-8.40;97.30
1075;DHT22;526;51.392;12.448;2024-01-10T08:59:13;-8.30;97.30
1075;DHT22;526;51.392;12.448;2024-01-10T09:01:39;-8.20;97.30
1075;DHT22;526;51.392;12.448;2024-01-10T09:04:05;-8.10;97.30
1075;DHT22;526;51.392;12.448;2024-01-10T09:06:32;-8.10;97.30
1075;DHT22;526;51.392;12.448;2024-01-10T09:08:58;-8.10;97.30
1075;DHT22;526;51.392;12.448;2024-01-10T09:11:23;-8.10;97.30
1075;DHT22;526;51.392;12.448;2024-01-10T09:13:50;-8.00;97.30
1075;DHT22;526;51.392;12.448;2024-01-10T09:16:16;-7.90;97.30
1075;DHT22;526;51.392;12.448;2024-01-10T09:18:42;-7.90;97.30
1075;DHT22;526;51.392;12.448;2024-01-10T09:21:07;-7.80;97.30
1075;DHT22;526;51.392;12.448;2024-01-10T09:23:33;-7.80;97.30
1075;DHT22;526;51.392;12.448;2024-01-10T09:25:58;-7.70;97.30
1075;DHT22;526;51.392;12.448;2024-01-10T09:28:24;-7.70;97.30
1075;DHT22;526;51.392;12.448;2024-01-10T09:30:49;-7.60;97.30
1075;DHT22;526;51.392;12.448;2024-01-10T09:33:17;-7.50;97.30
1075;DHT22;526;51.392;12.448;2024-01-10T09:35:42;-7.40;97.30
1075;DHT22;526;51.392;12.448;2024-01-10T09:38:08;-7.30;97.30
1075;DHT22;526;51.392;12.448;2024-01-10T09:40:33;-7.30;97.30
1075;DHT22;526;51.392;12.448;2024-01-10T09:42:59;-7.20;97.30
1075;DHT22;526;51.392;12.448;2024-01-10T09:45:26;-7.10;97.30
1075;DHT22;526;51.392;12.448;2024-01-10T09:47:54;-7.10;97.30
1075;DHT22;526;51.392;12.448;2024-01-10T09:50:21;-7.00;97.30
1075;DHT22;526;51.392;12.448;2024-01-10T09:52:56;-7.00;97.30
1075;DHT22;526;51.392;12.448;2024-01-10T09:55:24;-6.90;97.30
1075;DHT22;526;51.392;12.448;2024-01-10T09:57:51;-6.80;97.30
1075;DHT22;526;51.392;12.448;2024-01-10T10:00:17;-6.70;97.30
1075;DHT22;526;51.392;12.448;2024-01-10T10:02:45;-6.70;97.30
1075;DHT22;526;51.392;12.448;2024-01-10T10:05:16;-6.60;97.30
1075;DHT22;526;51.392;12.448;2024-01-10T10:07:49;-6.50;97.30
1075;DHT22;526;51.392;12.448;2024-01-10T10:10:15;-6.50;97.30
1075;DHT22;526;51.392;12.448;2024-01-10T10:12:42;-6.40;97.30
1075;DHT22;526;51.392;12.448;2024-01-10T10:15:16;-6.30;97.30
1075;DHT22;526;51.392;12.448;2024-01-10T10:17:43;-6.30;97.30
1075;DHT22;526;51.392;12.448;2024-01-10T10:20:23;-6.20;97.30
1075;DHT22;526;51.392;12.448;2024-01-10T10:25:37;-6.00;97.30
1075;DHT22;526;51.392;12.448;2024-01-10T10:28:04;-5.90;97.30
1075;DHT22;526;51.392;12.448;2024-01-10T10:30:31;-5.80;97.30
1075;DHT22;526;51.392;12.448;2024-01-10T10:32:57;-5.70;97.30
1075;DHT22;526;51.392;12.448;2024-01-10T10:35:23;-5.60;97.30
1075;DHT22;526;51.392;12.448;2024-01-10T10:37:50;-5.50;97.30
1075;DHT22;526;51.392;12.448;2024-01-10T10:40:16;-5.40;97.30
1075;DHT22;526;51.392;12.448;2024-01-10T10:42:44;-5.30;97.30
1075;DHT22;526;51.392;12.448;2024-01-10T10:45:14;-5.20;97.30
1075;DHT22;526;51.392;12.448;2024-01-10T10:47:41;-5.10;97.30
1075;DHT22;526;51.392;12.448;2024-01-10T10:50:24;-5.00;97.30
1075;DHT22;526;51.392;12.448;2024-01-10T10:52:51;-4.90;97.30
1075;DHT22;526;51.392;12.448;2024-01-10T10:55:18;-4.80;97.30
1075;DHT22;526;51.392;12.448;2024-01-10T10:57:45;-4.70;97.30
1075;DHT22;526;51.392;12.448;2024-01-10T11:00:17;-4.60;97.30
1075;DHT22;526;51.392;12.448;2024-01-10T11:02:44;-4.50;97.30
1075;DHT22;526;51.392;12.448;2024-01-10T11:05:10;-4.40;97.30
1075;DHT22;526;51.392;12.448;2024-01-10T11:07:37;-4.30;97.30
1075;DHT22;526;51.392;12.448;2024-01-10T11:10:06;-4.20;97.30
1075;DHT22;526;51.392;12.448;2024-01-10T11:12:55;-4.00;97.30
1075;DHT22;526;51.392;12.448;2024-01-10T11:19:37;-3.60;97.30
1075;DHT22;526;51.392;12.448;2024-01-10T11:24:32;-3.40;97.30
1075;DHT22;526;51.392;12.448;2024-01-10T11:27:27;-3.20;97.30
1075;DHT22;526;51.392;12.448;2024-01-10T11:29:52;-3.20;97.30
1075;DHT22;526;51.392;12.448;2024-01-10T11:32:23;-3.10;97.30
1075;DHT22;526;51.392;12.448;2024-01-10T11:37:20;-3.00;97.30
1075;DHT22;526;51.392;12.448;2024-01-10T11:39:46;-2.90;97.30
1075;DHT22;526;51.392;12.448;2024-01-10T11:42:11;-2.90;97.30
1075;DHT22;526;51.392;12.448;2024-01-10T11:44:50;-2.70;97.30
1075;DHT22;526;51.392;12.448;2024-01-10T11:47:17;-2.60;97.20
1075;DHT22;526;51.392;12.448;2024-01-10T11:49:58;-2.40;96.80
1075;DHT22;526;51.392;12.448;2024-01-10T11:52:37;-2.30;96.60
1075;DHT22;526;51.392;12.448;2024-01-10T11:55:03;-2.10;96.10
1075;DHT22;526;51.392;12.448;2024-01-10T11:57:30;-2.10;95.80
1075;DHT22;526;51.392;12.448;2024-01-10T11:59:58;-2.00;95.20
1075;DHT22;526;51.392;12.448;2024-01-10T12:02:30;-1.90;95.40
1075;DHT22;526;51.392;12.448;2024-01-10T12:04:56;-1.70;95.40
1075;DHT22;526;51.392;12.448;2024-01-10T12:07:22;-1.60;95.70
1075;DHT22;526;51.392;12.448;2024-01-10T12:09:49;-1.50;95.80
1075;DHT22;526;51.392;12.448;2024-01-10T12:12:15;-1.40;95.60
1075;DHT22;526;51.392;12.448;2024-01-10T12:14:41;-1.30;95.00
1075;DHT22;526;51.392;12.448;2024-01-10T12:17:08;-1.30;94.70
1075;DHT22;526;51.392;12.448;2024-01-10T12:19:34;-1.20;94.50
1075;DHT22;526;51.392;12.448;2024-01-10T12:22:01;-1.20;94.70
1075;DHT22;526;51.392;12.448;2024-01-10T12:24:30;-1.00;94.10
1075;DHT22;526;51.392;12.448;2024-01-10T12:26:56;-1.00;93.70
1075;DHT22;526;51.392;12.448;2024-01-10T12:29:22;-0.90;93.80
1075;DHT22;526;51.392;12.448;2024-01-10T12:31:48;-0.90;93.60
1075;DHT22;526;51.392;12.448;2024-01-10T12:34:13;-0.80;93.20
1075;DHT22;526;51.392;12.448;2024-01-10T12:36:43;-0.70;93.00
1075;DHT22;526;51.392;12.448;2024-01-10T12:39:09;-0.60;92.50
1075;DHT22;526;51.392;12.448;2024-01-10T12:41:36;-0.50;92.50
1075;DHT22;526;51.392;12.448;2024-01-10T12:44:02;-0.30;92.00
1075;DHT22;526;51.392;12.448;2024-01-10T12:46:29;-0.30;91.20
1075;DHT22;526;51.392;12.448;2024-01-10T12:49:03;-0.30;90.90
1075;DHT22;526;51.392;12.448;2024-01-10T12:51:31;-0.20;90.90
1075;DHT22;526;51.392;12.448;2024-01-10T12:53:58;0.10;90.80
1075;DHT22;526;51.392;12.448;2024-01-10T12:56:25;0.30;90.10
1075;DHT22;526;51.392;12.448;2024-01-10T12:58:51;0.30;90.10
1075;DHT22;526;51.392;12.448;2024-01-10T13:01:16;0.40;89.60
1075;DHT22;526;51.392;12.448;2024-01-10T13:03:42;0.50;89.40
1075;DHT22;526;51.392;12.448;2024-01-10T13:06:09;0.70;89.10
1075;DHT22;526;51.392;12.448;2024-01-10T13:08:35;0.80;88.80
1075;DHT22;526;51.392;12.448;2024-01-10T13:11:00;0.80;88.40
1075;DHT22;526;51.392;12.448;2024-01-10T13:13:26;0.90;88.20
1075;DHT22;526;51.392;12.448;2024-01-10T13:15:51;1.00;87.90
1075;DHT22;526;51.392;12.448;2024-01-10T13:18:17;1.00;87.90
1075;DHT22;526;51.392;12.448;2024-01-10T13:20:44;0.90;87.60
1075;DHT22;526;51.392;12.448;2024-01-10T13:23:10;0.90;87.20
1075;DHT22;526;51.392;12.448;2024-01-10T13:25:36;0.90;87.00
1075;DHT22;526;51.392;12.448;2024-01-10T13:28:03;0.90;87.20
1075;DHT22;526;51.392;12.448;2024-01-10T13:30:28;1.10;87.30
1075;DHT22;526;51.392;12.448;2024-01-10T13:32:54;1.10;87.50
1075;DHT22;526;51.392;12.448;2024-01-10T13:35:19;1.20;87.30
1075;DHT22;526;51.392;12.448;2024-01-10T13:37:45;1.10;86.80
1075;DHT22;526;51.392;12.448;2024-01-10T13:40:12;0.90;86.60
1075;DHT22;526;51.392;12.448;2024-01-10T13:42:39;0.90;86.90
1075;DHT22;526;51.392;12.448;2024-01-10T13:45:08;0.80;87.00
1075;DHT22;526;51.392;12.448;2024-01-10T13:47:37;0.90;87.20
1075;DHT22;526;51.392;12.448;2024-01-10T13:50:04;1.00;86.80
1075;DHT22;526;51.392;12.448;2024-01-10T13:52:33;1.00;86.30
1075;DHT22;526;51.392;12.448;2024-01-10T13:54:59;1.00;86.20
1075;DHT22;526;51.392;12.448;2024-01-10T13:57:28;1.10;86.40
1075;DHT22;526;51.392;12.448;2024-01-10T13:59:59;1.20;86.00
1075;DHT22;526;51.392;12.448;2024-01-10T14:02:28;1.20;85.50
1075;DHT22;526;51.392;12.448;2024-01-10T14:08:10;1.10;85.20
1075;DHT22;526;51.392;12.448;2024-01-10T14:10:39;1.20;85.30
1075;DHT22;526;51.392;12.448;2024-01-10T14:13:11;1.20;84.90
1075;DHT22;526;51.392;12.448;2024-01-10T14:15:40;1.10;84.70
1075;DHT22;526;51.392;12.448;2024-01-10T14:18:10;1.10;84.70
1075;DHT22;526;51.392;12.448;2024-01-10T14:20:41;1.30;84.90
1075;DHT22;526;51.392;12.448;2024-01-10T14:23:10;1.40;84.70
1075;DHT22;526;51.392;12.448;2024-01-10T14:25:38;1.40;84.50
1075;DHT22;526;51.392;12.448;2024-01-10T14:28:20;1.40;84.40
1075;DHT22;526;51.392;12.448;2024-01-10T14:30:48;1.30;84.40
1075;DHT22;526;51.392;12.448;2024-01-10T14:33:19;1.10;84.40
1075;DHT22;526;51.392;12.448;2024-01-10T14:38:41;0.50;85.00
1075;DHT22;526;51.392;12.448;2024-01-10T14:41:09;0.10;85.90
1075;DHT22;526;51.392;12.448;2024-01-10T14:43:57;-0.30;86.80
1075;DHT22;526;51.392;12.448;2024-01-10T14:46:32;-0.60;87.40
1075;DHT22;526;51.392;12.448;2024-01-10T14:49:09;-0.90;88.10
1075;DHT22;526;51.392;12.448;2024-01-10T14:51:42;-1.00;88.90
1075;DHT22;526;51.392;12.448;2024-01-10T14:54:10;-1.10;89.40
1075;DHT22;526;51.392;12.448;2024-01-10T14:56:38;-1.20;89.60
1075;DHT22;526;51.392;12.448;2024-01-10T14:59:10;-1.30;89.90
1075;DHT22;526;51.392;12.448;2024-01-10T15:01:43;-1.50;90.30
1075;DHT22;526;51.392;12.448;2024-01-10T15:04:09;-1.60;90.80
1075;DHT22;526;51.392;12.448;2024-01-10T15:06:34;-1.80;91.30
1075;DHT22;526;51.392;12.448;2024-01-10T15:09:00;-2.00;91.90
1075;DHT22;526;51.392;12.448;2024-01-10T15:11:26;-2.10;92.50
1075;DHT22;526;51.392;12.448;2024-01-10T15:13:51;-2.20;92.90
1075;DHT22;526;51.392;12.448;2024-01-10T15:16:16;-2.30;93.10
1075;DHT22;526;51.392;12.448;2024-01-10T15:18:42;-2.40;93.20
1075;DHT22;526;51.392;12.448;2024-01-10T15:21:07;-2.50;93.50
1075;DHT22;526;51.392;12.448;2024-01-10T15:23:33;-2.60;93.80
1075;DHT22;526;51.392;12.448;2024-01-10T15:25:59;-2.60;94.20
1075;DHT22;526;51.392;12.448;2024-01-10T15:28:24;-2.60;94.30
1075;DHT22;526;51.392;12.448;2024-01-10T15:30:50;-2.70;94.30
1075;DHT22;526;51.392;12.448;2024-01-10T15:33:16;-2.80;94.50
1075;DHT22;526;51.392;12.448;2024-01-10T15:35:43;-2.90;94.80
1075;DHT22;526;51.392;12.448;2024-01-10T15:38:09;-3.00;95.10
1075;DHT22;526;51.392;12.448;2024-01-10T15:40:34;-3.00;95.30
1075;DHT22;526;51.392;12.448;2024-01-10T15:43:00;-3.10;95.60
1075;DHT22;526;51.392;12.448;2024-01-10T15:45:25;-3.10;95.90
1075;DHT22;526;51.392;12.448;2024-01-10T15:47:51;-3.20;96.10
1075;DHT22;526;51.392;12.448;2024-01-10T15:50:17;-3.20;96.30
1075;DHT22;526;51.392;12.448;2024-01-10T15:52:42;-3.30;96.60
1075;DHT22;526;51.392;12.448;2024-01-10T15:55:09;-3.30;96.80
1075;DHT22;526;51.392;12.448;2024-01-10T15:57:35;-3.40;96.90
1075;DHT22;526;51.392;12.448;2024-01-10T16:00:01;-3.40;97.10
1075;DHT22;526;51.392;12.448;2024-01-10T16:02:26;-3.40;97.30
1075;DHT22;526;51.392;12.448;2024-01-10T16:04:52;-3.50;97.30
1075;DHT22;526;51.392;12.448;2024-01-10T16:07:18;-3.50;97.30
1075;DHT22;526;51.392;12.448;2024-01-10T16:09:45;-3.50;97.30
1075;DHT22;526;51.392;12.448;2024-01-10T16:12:10;-3.60;97.30
1075;DHT22;526;51.392;12.448;2024-01-10T16:14:36;-3.60;97.30
1075;DHT22;526;51.392;12.448;2024-01-10T16:17:01;-3.60;97.30
1075;DHT22;526;51.392;12.448;2024-01-10T16:19:28;-3.60;97.30
1075;DHT22;526;51.392;12.448;2024-01-10T16:21:53;-3.70;97.30
1075;DHT22;526;51.392;12.448;2024-01-10T16:24:20;-3.70;97.30
1075;DHT22;526;51.392;12.448;2024-01-10T16:26:45;-3.70;97.30
1075;DHT22;526;51.392;12.448;2024-01-10T16:29:10;-3.80;97.30
1075;DHT22;526;51.392;12.448;2024-01-10T16:31:36;-3.80;97.30
1075;DHT22;526;51.392;12.448;2024-01-10T16:34:02;-3.80;97.30
1075;DHT22;526;51.392;12.448;2024-01-10T16:36:27;-3.80;97.30
1075;DHT22;526;51.392;12.448;2024-01-10T16:38:53;-3.90;97.30
1075;DHT22;526;51.392;12.448;2024-01-10T16:41:20;-4.00;97.30
1075;DHT22;526;51.392;12.448;2024-01-10T16:43:45;-4.00;97.30
1075;DHT22;526;51.392;12.448;2024-01-10T16:46:11;-4.10;97.30
1075;DHT22;526;51.392;12.448;2024-01-10T16:48:36;-4.10;97.30
1075;DHT22;526;51.392;12.448;2024-01-10T16:51:02;-4.20;97.30
1075;DHT22;526;51.392;12.448;2024-01-10T16:53:28;-4.30;97.30
1075;DHT22;526;51.392;12.448;2024-01-10T16:55:54;-4.30;97.30
1075;DHT22;526;51.392;12.448;2024-01-10T16:58:20;-4.30;97.30
1075;DHT22;526;51.392;12.448;2024-01-10T17:00:45;-4.30;97.30
1075;DHT22;526;51.392;12.448;2024-01-10T17:03:10;-4.30;97.30
1075;DHT22;526;51.392;12.448;2024-01-10T17:05:36;-4.30;97.30
1075;DHT22;526;51.392;12.448;2024-01-10T17:08:02;-4.40;97.30
1075;DHT22;526;51.392;12.448;2024-01-10T17:10:29;-4.40;97.30
1075;DHT22;526;51.392;12.448;2024-01-10T17:12:54;-4.40;97.30
1075;DHT22;526;51.392;12.448;2024-01-10T17:15:20;-4.40;97.30
1075;DHT22;526;51.392;12.448;2024-01-10T17:17:45;-4.40;97.30
1075;DHT22;526;51.392;12.448;2024-01-10T17:20:11;-4.40;97.30
1075;DHT22;526;51.392;12.448;2024-01-10T17:22:39;-4.40;97.30
1075;DHT22;526;51.392;12.448;2024-01-10T17:25:05;-4.40;97.30
1075;DHT22;526;51.392;12.448;2024-01-10T17:27:31;-4.50;97.30
1075;DHT22;526;51.392;12.448;2024-01-10T17:29:57;-4.50;97.30
1075;DHT22;526;51.392;12.448;2024-01-10T17:32:24;-4.50;97.30
1075;DHT22;526;51.392;12.448;2024-01-10T17:34:49;-4.60;97.30
1075;DHT22;526;51.392;12.448;2024-01-10T17:37:15;-4.70;97.30
1075;DHT22;526;51.392;12.448;2024-01-10T17:39:41;-4.70;97.30
1075;DHT22;526;51.392;12.448;2024-01-10T17:42:06;-4.70;97.30
1075;DHT22;526;51.392;12.448;2024-01-10T17:44:32;-4.80;97.30
1075;DHT22;526;51.392;12.448;2024-01-10T17:47:01;-4.90;97.30
1075;DHT22;526;51.392;12.448;2024-01-10T17:49:27;-4.90;97.30
1075;DHT22;526;51.392;12.448;2024-01-10T17:51:52;-4.90;97.30
1075;DHT22;526;51.392;12.448;2024-01-10T17:54:18;-4.90;97.30
1075;DHT22;526;51.392;12.448;2024-01-10T17:56:43;-4.90;97.30
1075;DHT22;526;51.392;12.448;2024-01-10T17:59:09;-4.90;97.30
1075;DHT22;526;51.392;12.448;2024-01-10T18:01:34;-4.90;97.30
1075;DHT22;526;51.392;12.448;2024-01-10T18:04:00;-4.90;97.30
1075;DHT22;526;51.392;12.448;2024-01-10T18:06:25;-4.90;97.30
1075;DHT22;526;51.392;12.448;2024-01-10T18:08:51;-4.90;97.30
1075;DHT22;526;51.392;12.448;2024-01-10T18:11:17;-5.00;97.30
1075;DHT22;526;51.392;12.448;2024-01-10T18:13:42;-5.00;97.30
1075;DHT22;526;51.392;12.448;2024-01-10T18:16:07;-5.00;97.30
1075;DHT22;526;51.392;12.448;2024-01-10T18:18:33;-5.10;97.30
1075;DHT22;526;51.392;12.448;2024-01-10T18:21:00;-5.10;97.30
1075;DHT22;526;51.392;12.448;2024-01-10T18:23:29;-5.20;97.30
1075;DHT22;526;51.392;12.448;2024-01-10T18:25:55;-5.20;97.30
1075;DHT22;526;51.392;12.448;2024-01-10T18:28:21;-5.20;97.30
1075;DHT22;526;51.392;12.448;2024-01-10T18:30:47;-5.30;97.30
1075;DHT22;526;51.392;12.448;2024-01-10T18:33:14;-5.30;97.30
1075;DHT22;526;51.392;12.448;2024-01-10T18:35:40;-5.30;97.30
1075;DHT22;526;51.392;12.448;2024-01-10T18:38:06;-5.30;97.30
1075;DHT22;526;51.392;12.448;2024-01-10T18:40:33;-5.30;97.30
1075;DHT22;526;51.392;12.448;2024-01-10T18:42:58;-5.30;97.30
1075;DHT22;526;51.392;12.448;2024-01-10T18:45:23;-5.40;97.30
1075;DHT22;526;51.392;12.448;2024-01-10T18:47:49;-5.40;97.30
1075;DHT22;526;51.392;12.448;2024-01-10T18:50:14;-5.40;97.30
1075;DHT22;526;51.392;12.448;2024-01-10T18:52:40;-5.40;97.30
1075;DHT22;526;51.392;12.448;2024-01-10T18:55:06;-5.40;97.30
1075;DHT22;526;51.392;12.448;2024-01-10T18:57:32;-5.50;97.30
1075;DHT22;526;51.392;12.448;2024-01-10T18:59:57;-5.50;97.30
1075;DHT22;526;51.392;12.448;2024-01-10T19:02:23;-5.60;97.30
1075;DHT22;526;51.392;12.448;2024-01-10T19:04:49;-5.70;97.30
1075;DHT22;526;51.392;12.448;2024-01-10T19:07:14;-5.70;97.30
1075;DHT22;526;51.392;12.448;2024-01-10T19:09:40;-5.80;97.30
1075;DHT22;526;51.392;12.448;2024-01-10T19:12:06;-5.90;97.30
1075;DHT22;526;51.392;12.448;2024-01-10T19:14:32;-5.90;97.30
1075;DHT22;526;51.392;12.448;2024-01-10T19:17:00;-6.00;97.30
1075;DHT22;526;51.392;12.448;2024-01-10T19:19:25;-6.00;97.30
1075;DHT22;526;51.392;12.448;2024-01-10T19:21:51;-6.00;97.30
1075;DHT22;526;51.392;12.448;2024-01-10T19:24:17;-6.10;97.30
1075;DHT22;526;51.392;12.448;2024-01-10T19:26:43;-6.10;97.30
1075;DHT22;526;51.392;12.448;2024-01-10T19:29:08;-6.10;97.30
1075;DHT22;526;51.392;12.448;2024-01-10T19:31:34;-6.20;97.30
1075;DHT22;526;51.392;12.448;2024-01-10T19:33:59;-6.20;97.30
1075;DHT22;526;51.392;12.448;2024-01-10T19:36:25;-6.30;97.30
1075;DHT22;526;51.392;12.448;2024-01-10T19:38:51;-6.30;97.30
1075;DHT22;526;51.392;12.448;2024-01-10T19:41:21;-6.40;97.30
1075;DHT22;526;51.392;12.448;2024-01-10T19:43:48;-6.40;97.30
1075;DHT22;526;51.392;12.448;2024-01-10T19:46:18;-6.40;97.30
1075;DHT22;526;51.392;12.448;2024-01-10T19:48:44;-6.40;97.30
1075;DHT22;526;51.392;12.448;2024-01-10T19:51:10;-6.50;97.30
1075;DHT22;526;51.392;12.448;2024-01-10T19:53:36;-6.60;97.30
1075;DHT22;526;51.392;12.448;2024-01-10T19:56:01;-6.70;97.30
1075;DHT22;526;51.392;12.448;2024-01-10T19:58:27;-6.80;97.30
1075;DHT22;526;51.392;12.448;2024-01-10T20:00:52;-6.70;97.30
1075;DHT22;526;51.392;12.448;2024-01-10T20:03:18;-6.70;97.30
1075;DHT22;526;51.392;12.448;2024-01-10T20:05:44;-6.70;97.30
1075;DHT22;526;51.392;12.448;2024-01-10T20:08:09;-6.80;97.30
1075;DHT22;526;51.392;12.448;2024-01-10T20:10:35;-6.80;97.30
1075;DHT22;526;51.392;12.448;2024-01-10T20:13:05;-6.90;97.30
1075;DHT22;526;51.392;12.448;2024-01-10T20:15:32;-7.00;97.30
1075;DHT22;526;51.392;12.448;2024-01-10T20:17:58;-7.00;97.30
1075;DHT22;526;51.392;12.448;2024-01-10T20:20:23;-7.10;97.30
1075;DHT22;526;51.392;12.448;2024-01-10T20:22:49;-7.10;97.30
1075;DHT22;526;51.392;12.448;2024-01-10T20:25:14;-7.20;97.30
1075;DHT22;526;51.392;12.448;2024-01-10T20:27:40;-7.20;97.30
1075;DHT22;526;51.392;12.448;2024-01-10T20:30:06;-7.20;97.30
1075;DHT22;526;51.392;12.448;2024-01-10T20:32:32;-7.20;97.30
1075;DHT22;526;51.392;12.448;2024-01-10T20:34:57;-7.30;97.30
1075;DHT22;526;51.392;12.448;2024-01-10T20:37:23;-7.30;97.30
1075;DHT22;526;51.392;12.448;2024-01-10T20:39:48;-7.40;97.30
1075;DHT22;526;51.392;12.448;2024-01-10T20:42:14;-7.40;97.30
1075;DHT22;526;51.392;12.448;2024-01-10T20:44:39;-7.40;97.30
1075;DHT22;526;51.392;12.448;2024-01-10T20:47:08;-7.40;97.30
1075;DHT22;526;51.392;12.448;2024-01-10T20:49:34;-7.30;97.30
1075;DHT22;526;51.392;12.448;2024-01-10T20:51:59;-7.40;97.30
1075;DHT22;526;51.392;12.448;2024-01-10T20:54:25;-7.40;97.30
1075;DHT22;526;51.392;12.448;2024-01-10T20:56:50;-7.40;97.30
1075;DHT22;526;51.392;12.448;2024-01-10T20:59:16;-7.40;97.30
1075;DHT22;526;51.392;12.448;2024-01-10T21:01:41;-7.50;97.30
1075;DHT22;526;51.392;12.448;2024-01-10T21:04:07;-7.60;97.30
1075;DHT22;526;51.392;12.448;2024-01-10T21:06:32;-7.60;97.30
1075;DHT22;526;51.392;12.448;2024-01-10T21:08:58;-7.60;97.30
1075;DHT22;526;51.392;12.448;2024-01-10T21:11:23;-7.60;97.30
1075;DHT22;526;51.392;12.448;2024-01-10T21:13:49;-7.60;97.30
1075;DHT22;526;51.392;12.448;2024-01-10T21:16:14;-7.70;97.30